Ann Arbor, MI

8:37 AM EDT on March 29, 2017 (GMT -0400)
Washington and Crest | | Change Station

Elev 879 ft 42.28 °N, 83.77 °W | Updated 6 seconds ago

Clear
Clear
31.1 °F
Feels Like 31 °F
N
0.0
Wind Variable Wind from NE
Gusts 0.0 mph

Today
High -- | Low -- °F
--% Chance of Precip.
Yesterday
High -- | Low -- °F
Precip. -- in
Pressure 30.29 in
Visibility 8.0 miles
Clouds Clear
Windchill 31 °F
Dew Point 30 °F
Humidity 96%
Rainfall 0.00 in
Snow Depth Not available.
7:22 AM 7:57 PM
Waxing Crescent, 3% visible
METAR KARB 291153Z AUTO 00000KT 8SM CLR M02/M02 A3026 RMK AO2 SLP255 I1000 I6000 T10221022 10028 21033 53013
Pressure 30.29 in
Visibility 8.0 miles
Clouds Clear
Windchill 31 °F
Dew Point 30 °F
Humidity 96%
Rainfall 0.00 in
Snow Depth Not available.
7:22 AM 7:57 PM
Waxing Crescent, 3% visible
METAR KARB 291153Z AUTO 00000KT 8SM CLR M02/M02 A3026 RMK AO2 SLP255 I1000 I6000 T10221022 10028 21033 53013

Get Severe Weather Alerts

Thanks for signing up!

Be on the lookout for a verification email in your inbox.

You'll start receiving the daily forecast at 8 AM.

×

10-Day Weather Forecast

Almanac

Astronomy

Mar. 29, 2017 Rise Set
Actual Time
Civil Twilight
Nautical Twilight
Astronomical Twilight
Moon
Length of Visible Light
Length of Day
Tomorrow will be .
, % of the Moon is Illuminated

Today's Extremes

State Highs State Lows

Community

WunderPhotos

Upload Photos

1,962,540 photos uploaded!

WunderBlog® & News

Nearby

Air Quality

  Air Quality AQ Index Pollutant
Not available.

Snow Depth

Station Depth Elevation

Earthquake Activity

City Distance Mag. Time & Date
Minimum magnitude displayed is 2.5.

Earthquake Activity

City Distance Mag. Time & Date
Minimum magnitude displayed is 2.5.

Coastal Water Temperatures

Place Temperature

Stations

Nearby Weather Stations

Station Location Temp. Windchill Dew Point Humidity Wind Precip. Elev Updated Type
                   

Watches & Warnings

There are currently no watches in effect.